createdAt,value
2019-04-25T00:00:13.075Z,27.80
2019-04-25T00:02:45.511Z,29.45
2019-04-25T00:07:47.127Z,27.73
2019-04-25T00:10:15.741Z,28.57
2019-04-25T00:12:53.949Z,26.12
2019-04-25T00:15:23.040Z,25.97
2019-04-25T00:17:55.465Z,27.98
2019-04-25T00:23:03.549Z,27.98
2019-04-25T00:25:44.401Z,33.35
2019-04-25T00:28:28.560Z,20.23
2019-04-25T00:30:57.041Z,20.80
2019-04-25T00:33:25.416Z,21.93
2019-04-25T00:35:54.374Z,23.35
2019-04-25T00:38:29.811Z,13.58
2019-04-25T00:40:56.430Z,14.68
2019-04-25T00:43:31.456Z,19.17
2019-04-25T00:45:58.725Z,11.70
2019-04-25T00:48:27.130Z,18.23
2019-04-25T00:50:55.514Z,9.40
2019-04-25T00:53:26.388Z,13.40
2019-04-25T00:55:58.842Z,21.17
2019-04-25T00:58:34.916Z,12.55
2019-04-25T01:01:04.967Z,11.12
2019-04-25T01:03:44.273Z,8.03
2019-04-25T01:06:16.007Z,8.17
2019-04-25T01:08:51.817Z,9.25
2019-04-25T01:11:23.679Z,5.60
2019-04-25T01:13:50.440Z,7.30
2019-04-25T01:16:20.016Z,8.27
2019-04-25T01:18:49.471Z,4.55
2019-04-25T01:21:18.691Z,5.22
2019-04-25T01:23:47.347Z,8.73
2019-04-25T01:26:18.249Z,4.67
2019-04-25T01:28:51.887Z,5.55
2019-04-25T01:31:24.945Z,8.20
2019-04-25T01:33:54.602Z,8.33
2019-04-25T01:36:41.863Z,6.07
2019-04-25T01:39:14.364Z,13.05
2019-04-25T01:42:01.106Z,9.05
2019-04-25T01:44:34.688Z,10.93
2019-04-25T01:47:04.488Z,10.63
2019-04-25T01:49:33.953Z,5.33
2019-04-25T01:52:03.560Z,4.20
2019-04-25T01:54:33.829Z,7.00
2019-04-25T01:57:05.046Z,3.25
2019-04-25T01:59:33.874Z,4.08
2019-04-25T02:02:03.803Z,9.13
2019-04-25T02:04:34.151Z,6.35
2019-04-25T02:07:03.613Z,1.90
2019-04-25T02:09:36.471Z,4.87
2019-04-25T02:12:13.470Z,2.70
2019-04-25T02:14:43.571Z,3.10
2019-04-25T02:17:16.225Z,3.17
2019-04-25T02:19:44.615Z,3.42
2019-04-25T02:22:14.537Z,2.03
2019-04-25T02:24:46.993Z,5.47
2019-04-25T02:27:20.350Z,4.30
2019-04-25T02:29:53.392Z,4.25
2019-04-25T02:32:21.469Z,11.00
2019-04-25T02:34:55.265Z,6.45
2019-04-25T02:37:25.482Z,7.72
2019-04-25T02:39:56.651Z,10.53
2019-04-25T02:42:25.033Z,7.05
2019-04-25T02:45:00.151Z,11.08
2019-04-25T02:47:50.883Z,8.10
2019-04-25T02:50:48.142Z,22.07
2019-04-25T02:53:18.172Z,13.53
2019-04-25T02:55:49.100Z,13.25
2019-04-25T02:58:24.264Z,10.72
2019-04-25T03:03:44.748Z,11.05
2019-04-25T03:06:14.927Z,11.38
2019-04-25T03:08:44.925Z,13.40
2019-04-25T03:11:18.481Z,11.90
2019-04-25T03:13:49.559Z,10.58
2019-04-25T03:16:21.577Z,11.15
2019-04-25T03:18:57.938Z,11.55
2019-04-25T03:21:35.247Z,11.38
2019-04-25T03:24:06.161Z,11.30
2019-04-25T03:26:40.611Z,13.58
2019-04-25T03:29:10.403Z,12.58
2019-04-25T03:31:44.716Z,13.03
2019-04-25T03:34:20.283Z,12.45
2019-04-25T03:36:45.060Z,11.67
2019-04-25T03:39:16.303Z,11.83
2019-04-25T03:41:43.858Z,12.63
2019-04-25T03:44:13.997Z,13.03
2019-04-25T03:46:43.808Z,13.93
2019-04-25T03:49:13.942Z,11.65
2019-04-25T03:51:45.060Z,14.03
2019-04-25T03:54:14.278Z,16.42
2019-04-25T03:56:53.545Z,17.02
2019-04-25T03:59:16.099Z,12.98
2019-04-25T04:01:44.625Z,14.78
2019-04-25T04:04:16.218Z,15.75
2019-04-25T04:06:44.254Z,16.97
2019-04-25T04:09:17.559Z,14.00
2019-04-25T04:11:53.464Z,16.75
2019-04-25T04:14:23.827Z,18.85
2019-04-25T04:17:16.124Z,16.75
2019-04-25T04:19:46.180Z,14.98
2019-04-25T04:22:18.754Z,19.85
2019-04-25T04:27:21.730Z,18.57
2019-04-25T04:29:50.122Z,18.12
2019-04-25T04:32:18.541Z,17.25
2019-04-25T04:34:47.001Z,18.37
2019-04-25T04:37:23.622Z,18.80
2019-04-25T04:39:54.329Z,18.20
2019-04-25T04:42:25.184Z,18.52
2019-04-25T04:44:53.646Z,21.02
2019-04-25T04:47:25.546Z,22.40
2019-04-25T04:49:54.151Z,22.40
2019-04-25T04:52:25.220Z,19.05
2019-04-25T04:55:03.692Z,20.05
2019-04-25T04:57:32.569Z,20.02
2019-04-25T05:00:03.675Z,19.67
2019-04-25T05:02:39.350Z,19.77
2019-04-25T05:05:09.503Z,22.55
2019-04-25T05:07:45.529Z,21.87
2019-04-25T05:10:16.511Z,19.40
2019-04-25T05:12:44.070Z,19.65
2019-04-25T05:15:16.231Z,23.77
2019-04-25T05:17:44.144Z,20.27
2019-04-25T05:20:20.575Z,20.27
2019-04-25T05:22:54.907Z,22.20
2019-04-25T05:25:24.746Z,22.45
2019-04-25T05:28:00.747Z,21.82
2019-04-25T05:30:26.519Z,21.35
2019-04-25T05:35:24.335Z,21.95
2019-04-25T05:37:54.056Z,17.45
2019-04-25T05:40:24.134Z,19.62
2019-04-25T05:42:59.311Z,17.87
2019-04-25T05:45:31.697Z,17.00
2019-04-25T05:48:06.015Z,18.07
2019-04-25T05:50:35.566Z,18.40
2019-04-25T05:53:04.388Z,18.57
2019-04-25T05:55:35.398Z,16.12
2019-04-25T05:58:04.102Z,12.45
2019-04-25T06:00:34.027Z,10.68
2019-04-25T06:03:03.560Z,10.88
2019-04-25T06:05:34.760Z,11.60
2019-04-25T06:08:05.615Z,10.47
2019-04-25T06:10:41.553Z,9.35
2019-04-25T06:13:28.513Z,9.78
2019-04-25T06:16:03.561Z,9.05
2019-04-25T06:18:33.861Z,10.82
2019-04-25T06:21:05.869Z,7.37
2019-04-25T06:23:44.336Z,7.87
2019-04-25T06:26:26.751Z,7.22
2019-04-25T06:28:53.817Z,5.80
2019-04-25T06:31:17.391Z,6.30
2019-04-25T06:33:45.908Z,6.17
2019-04-25T06:36:14.368Z,8.83
2019-04-25T06:38:44.354Z,6.72
2019-04-25T06:41:15.361Z,3.72
2019-04-25T06:43:45.418Z,4.25
2019-04-25T06:46:26.847Z,3.47
2019-04-25T06:49:05.063Z,4.58
2019-04-25T06:51:50.442Z,3.22
2019-04-25T06:54:25.393Z,3.80
2019-04-25T06:56:53.625Z,3.80
2019-04-25T06:59:25.907Z,2.00
2019-04-25T07:01:54.086Z,4.77
2019-04-25T07:04:26.257Z,4.50
2019-04-25T07:06:53.660Z,4.08
2019-04-25T07:09:24.417Z,2.75
2019-04-25T07:11:53.753Z,2.30
2019-04-25T07:14:24.558Z,3.98
2019-04-25T07:16:53.275Z,2.27
2019-04-25T07:19:25.019Z,2.60
2019-04-25T07:21:54.511Z,2.87
2019-04-25T07:24:24.818Z,2.77
2019-04-25T07:27:11.531Z,3.17
2019-04-25T07:29:59.863Z,2.55
2019-04-25T07:32:35.692Z,4.50
2019-04-25T07:35:05.885Z,2.20
2019-04-25T07:37:37.108Z,3.55
2019-04-25T07:40:08.591Z,3.15
2019-04-25T07:42:39.189Z,2.35
2019-04-25T07:45:11.707Z,2.72
2019-04-25T07:47:44.131Z,1.55
2019-04-25T07:50:16.833Z,1.80
2019-04-25T07:52:45.242Z,1.10
2019-04-25T07:55:13.877Z,2.83
2019-04-25T07:57:44.707Z,2.40
2019-04-25T08:00:15.354Z,1.57
2019-04-25T08:02:43.918Z,1.80
2019-04-25T08:05:14.991Z,4.85
2019-04-25T08:07:50.847Z,0.67
2019-04-25T08:10:23.952Z,2.30
2019-04-25T08:12:53.668Z,1.10
2019-04-25T08:15:33.519Z,1.42
2019-04-25T08:18:08.424Z,0.77
2019-04-25T08:20:37.163Z,0.75
2019-04-25T08:23:07.164Z,1.70
2019-04-25T08:25:37.848Z,3.30
2019-04-25T08:28:10.580Z,2.70
2019-04-25T08:30:41.788Z,0.80
2019-04-25T08:33:14.242Z,1.17
2019-04-25T08:36:03.427Z,0.93
2019-04-25T08:38:16.924Z,1.52
2019-04-25T08:40:45.315Z,1.02
2019-04-25T08:43:14.690Z,0.85
2019-04-25T08:45:44.285Z,2.12
2019-04-25T08:48:13.593Z,4.25
2019-04-25T08:50:44.520Z,1.35
2019-04-25T08:53:13.699Z,2.15
2019-04-25T08:55:45.737Z,1.10
2019-04-25T08:58:32.694Z,1.97
2019-04-25T09:01:20.994Z,0.75
2019-04-25T09:04:09.767Z,1.95
2019-04-25T09:06:44.257Z,1.52
2019-04-25T09:09:15.535Z,1.72
2019-04-25T09:11:46.909Z,1.20
2019-04-25T09:14:20.604Z,2.30
2019-04-25T09:16:48.987Z,1.17
2019-04-25T09:19:20.246Z,0.88
2019-04-25T09:21:51.105Z,2.63
2019-04-25T09:24:24.415Z,0.88
2019-04-25T09:26:54.204Z,4.60
2019-04-25T09:29:24.649Z,0.75
2019-04-25T09:31:53.772Z,0.80
2019-04-25T09:34:23.704Z,2.27
2019-04-25T09:36:53.631Z,1.13
2019-04-25T09:39:26.209Z,1.70
2019-04-25T09:41:54.588Z,0.45
2019-04-25T09:44:26.024Z,1.00
2019-04-25T09:46:54.393Z,2.23
2019-04-25T09:49:24.439Z,0.90
2019-04-25T09:51:54.476Z,1.60
2019-04-25T09:54:31.175Z,2.10
2019-04-25T09:57:06.735Z,1.20
2019-04-25T09:59:36.229Z,1.30
2019-04-25T10:02:06.326Z,1.87
2019-04-25T10:04:34.732Z,1.07
2019-04-25T10:07:05.026Z,0.88
2019-04-25T10:09:37.188Z,3.62
2019-04-25T10:12:05.953Z,2.85
2019-04-25T10:14:48.848Z,3.20
2019-04-25T10:19:45.614Z,1.30
2019-04-25T10:22:21.290Z,1.75
2019-04-25T10:24:59.993Z,2.70
2019-04-25T10:27:19.709Z,0.70
2019-04-25T10:29:53.668Z,1.67
2019-04-25T10:32:23.766Z,1.87
2019-04-25T10:34:54.344Z,2.08
2019-04-25T10:37:22.728Z,1.80
2019-04-25T10:39:51.476Z,2.25
2019-04-25T10:42:20.925Z,2.00
2019-04-25T10:44:50.473Z,3.77
2019-04-25T10:47:18.829Z,3.55
2019-04-25T10:49:48.249Z,4.50
2019-04-25T10:52:20.914Z,1.42
2019-04-25T10:54:54.264Z,4.00
2019-04-25T10:57:24.786Z,2.40
2019-04-25T11:00:05.629Z,4.12
2019-04-25T11:02:23.650Z,1.93
2019-04-25T11:04:54.526Z,4.08
2019-04-25T11:07:28.703Z,5.35
2019-04-25T11:09:58.206Z,2.42
2019-04-25T11:12:27.677Z,4.03
2019-04-25T11:14:58.620Z,3.12
2019-04-25T11:17:27.624Z,3.35
2019-04-25T11:20:05.527Z,2.67
2019-04-25T11:22:34.279Z,1.72
2019-04-25T11:25:05.164Z,3.72
2019-04-25T11:27:33.996Z,2.63
2019-04-25T11:30:10.922Z,11.05
2019-04-25T11:32:36.110Z,2.30
2019-04-25T11:35:07.770Z,5.20
2019-04-25T11:37:37.196Z,4.20
2019-04-25T11:40:14.417Z,3.98
2019-04-25T11:42:45.921Z,2.22
2019-04-25T11:45:14.641Z,3.92
2019-04-25T11:47:49.575Z,3.37
2019-04-25T11:50:21.840Z,4.78
2019-04-25T11:52:50.503Z,6.33
2019-04-25T11:55:30.347Z,4.55
2019-04-25T11:58:17.256Z,3.50
2019-04-25T12:00:47.115Z,4.72
2019-04-25T12:03:15.712Z,3.72
2019-04-25T12:05:45.844Z,5.80
2019-04-25T12:08:14.488Z,4.53
2019-04-25T12:10:47.874Z,2.47
2019-04-25T12:13:18.898Z,3.73
2019-04-25T12:15:54.832Z,3.60
2019-04-25T12:18:23.497Z,4.12
2019-04-25T12:20:51.874Z,3.08
2019-04-25T12:23:23.365Z,4.25
2019-04-25T12:25:54.046Z,3.58
2019-04-25T12:28:23.519Z,3.60
2019-04-25T12:30:54.698Z,5.53
2019-04-25T12:33:25.866Z,5.60
2019-04-25T12:35:54.175Z,3.67
2019-04-25T12:38:26.239Z,6.75
2019-04-25T12:40:55.327Z,3.47
2019-04-25T12:43:31.142Z,3.22
2019-04-25T12:46:08.055Z,4.95
2019-04-25T12:48:36.441Z,6.75
2019-04-25T12:51:07.429Z,2.65
2019-04-25T12:53:36.268Z,4.60
2019-04-25T12:56:04.722Z,3.37
2019-04-25T12:58:33.510Z,2.50
2019-04-25T13:01:09.650Z,1.07
2019-04-25T13:03:38.013Z,1.77
2019-04-25T13:06:13.652Z,4.28
2019-04-25T13:08:44.102Z,2.80
2019-04-25T13:11:13.955Z,3.13
2019-04-25T13:13:43.621Z,5.28
2019-04-25T13:16:14.207Z,2.33
2019-04-25T13:18:42.603Z,5.00
2019-04-25T13:21:14.520Z,1.62
2019-04-25T13:23:45.604Z,4.15
2019-04-25T13:26:16.715Z,2.87
2019-04-25T13:29:05.161Z,7.10
2019-04-25T13:31:41.553Z,4.15
2019-04-25T13:34:15.317Z,6.22
2019-04-25T13:36:44.294Z,3.27
2019-04-25T13:39:19.438Z,5.62
2019-04-25T13:41:54.352Z,5.53
2019-04-25T13:44:24.423Z,4.08
2019-04-25T13:46:56.399Z,4.45
2019-04-25T13:49:25.062Z,2.37
2019-04-25T13:51:53.486Z,4.93
2019-04-25T13:54:25.047Z,3.80
2019-04-25T13:56:54.719Z,2.00
2019-04-25T13:59:25.736Z,4.58
2019-04-25T14:01:57.724Z,1.98
2019-04-25T14:06:59.148Z,4.37
2019-04-25T14:09:30.484Z,5.35
2019-04-25T14:12:04.020Z,3.93
2019-04-25T14:14:41.436Z,1.30
2019-04-25T14:17:29.672Z,2.25
2019-04-25T14:20:14.114Z,2.35
2019-04-25T14:22:45.359Z,3.30
2019-04-25T14:25:14.932Z,4.47
2019-04-25T14:27:44.549Z,2.87
2019-04-25T14:30:14.757Z,4.00
2019-04-25T14:32:43.562Z,3.15
2019-04-25T14:35:12.290Z,0.80
2019-04-25T14:37:40.685Z,1.45
2019-04-25T14:40:10.085Z,1.87
2019-04-25T14:42:40.971Z,2.20
2019-04-25T14:45:13.604Z,4.10
2019-04-25T14:47:41.992Z,2.47
2019-04-25T14:50:12.963Z,1.62
2019-04-25T14:52:41.357Z,3.80
2019-04-25T14:55:33.751Z,0.95
2019-04-25T15:00:42.960Z,2.45
2019-04-25T15:03:15.495Z,1.20
2019-04-25T15:05:44.138Z,1.47
2019-04-25T15:08:12.519Z,2.87
2019-04-25T15:10:44.694Z,1.62
2019-04-25T15:13:13.140Z,4.40
2019-04-25T15:15:45.603Z,3.40
2019-04-25T15:18:15.130Z,2.92
2019-04-25T15:20:46.103Z,1.40
2019-04-25T15:23:14.495Z,1.90
2019-04-25T15:25:42.880Z,3.80
2019-04-25T15:28:14.880Z,1.20
2019-04-25T15:30:46.036Z,3.77
2019-04-25T15:33:14.523Z,1.37
2019-04-25T15:35:59.301Z,1.60
2019-04-25T15:38:38.189Z,3.05
2019-04-25T15:41:08.559Z,1.95
2019-04-25T15:43:54.977Z,1.47
2019-04-25T15:46:32.772Z,2.33
2019-04-25T15:49:03.903Z,2.55
2019-04-25T15:51:32.719Z,2.00
2019-04-25T15:54:01.177Z,2.15
2019-04-25T15:56:30.616Z,2.05
2019-04-25T15:58:58.924Z,3.62
2019-04-25T16:01:30.273Z,3.70
2019-04-25T16:04:01.216Z,2.63
2019-04-25T16:06:31.652Z,3.67
2019-04-25T16:09:00.202Z,1.77
2019-04-25T16:11:28.673Z,0.65
2019-04-25T16:14:02.085Z,4.83
2019-04-25T16:16:30.542Z,1.47
2019-04-25T16:19:01.512Z,3.08
2019-04-25T16:21:33.883Z,1.77
2019-04-25T16:24:02.267Z,5.65
2019-04-25T16:26:31.459Z,0.80
2019-04-25T16:28:59.979Z,2.65
2019-04-25T16:31:29.235Z,3.50
2019-04-25T16:33:57.717Z,4.35
2019-04-25T16:36:26.132Z,1.45
2019-04-25T16:38:54.559Z,3.22
2019-04-25T16:41:23.722Z,2.10
2019-04-25T16:43:53.745Z,1.52
2019-04-25T16:46:23.337Z,1.43
2019-04-25T16:48:51.803Z,2.05
2019-04-25T16:51:20.262Z,1.70
2019-04-25T16:53:48.667Z,3.15
2019-04-25T16:56:18.169Z,3.03
2019-04-25T16:58:46.643Z,2.75
2019-04-25T17:01:15.815Z,3.53
2019-04-25T17:03:44.753Z,2.45
2019-04-25T17:06:13.399Z,2.63
2019-04-25T17:08:47.070Z,2.00
2019-04-25T17:11:15.828Z,2.55
2019-04-25T17:13:45.885Z,2.70
2019-04-25T17:16:21.848Z,3.55
2019-04-25T17:18:57.933Z,3.55
2019-04-25T17:21:36.905Z,4.72
2019-04-25T17:24:28.461Z,0.82
2019-04-25T17:26:56.853Z,3.70
2019-04-25T17:29:25.376Z,3.58
2019-04-25T17:31:58.492Z,0.82
2019-04-25T17:34:35.353Z,1.75
2019-04-25T17:37:11.687Z,1.27
2019-04-25T17:39:42.173Z,2.70
2019-04-25T17:42:10.618Z,2.93
2019-04-25T17:44:39.026Z,4.33
2019-04-25T17:47:07.422Z,2.72
2019-04-25T17:49:36.678Z,1.82
2019-04-25T17:52:05.334Z,2.37
2019-04-25T17:54:34.215Z,4.92
2019-04-25T17:57:02.683Z,4.65
2019-04-25T17:59:32.286Z,2.40
2019-04-25T18:02:01.677Z,4.47
2019-04-25T18:04:30.131Z,1.92
2019-04-25T18:06:58.516Z,2.27
2019-04-25T18:09:26.895Z,3.10
2019-04-25T18:11:55.320Z,3.17
2019-04-25T18:14:23.810Z,6.08
2019-04-25T18:16:52.304Z,3.25
2019-04-25T18:19:25.915Z,2.40
2019-04-25T18:21:55.940Z,3.30
2019-04-25T18:24:41.236Z,5.12
2019-04-25T18:27:20.401Z,5.07
2019-04-25T18:29:48.785Z,2.77
2019-04-25T18:32:17.160Z,2.98
2019-04-25T18:34:59.445Z,4.67
2019-04-25T18:37:29.465Z,4.05
2019-04-25T18:40:08.325Z,5.53
2019-04-25T18:42:38.346Z,2.85
2019-04-25T18:45:08.295Z,3.70
2019-04-25T18:47:36.968Z,2.27
2019-04-25T18:50:08.368Z,3.33
2019-04-25T18:52:45.056Z,2.27
2019-04-25T18:55:17.087Z,2.80
2019-04-25T18:57:48.059Z,4.15
2019-04-25T19:00:30.655Z,4.37
2019-04-25T19:03:22.478Z,6.58
2019-04-25T19:05:47.317Z,4.05
2019-04-25T19:08:15.717Z,2.97
2019-04-25T19:10:45.038Z,5.42
2019-04-25T19:13:13.651Z,2.75
2019-04-25T19:15:43.006Z,4.05
2019-04-25T19:18:11.514Z,3.37
2019-04-25T19:20:40.033Z,5.03
2019-04-25T19:23:08.469Z,5.20
2019-04-25T19:25:36.881Z,5.80
2019-04-25T19:28:05.264Z,5.62
2019-04-25T19:30:33.735Z,6.00
2019-04-25T19:33:02.113Z,9.28
2019-04-25T19:35:30.517Z,5.47
2019-04-25T19:37:58.910Z,5.95
2019-04-25T19:40:30.344Z,5.00
2019-04-25T19:43:06.488Z,2.00
2019-04-25T19:45:34.881Z,4.62
2019-04-25T19:48:03.266Z,4.95
2019-04-25T19:50:31.676Z,4.42
2019-04-25T19:53:00.080Z,3.92
2019-04-25T19:55:28.484Z,1.92
2019-04-25T19:57:56.909Z,4.75
2019-04-25T20:00:25.304Z,5.12
2019-04-25T20:03:07.389Z,2.97
2019-04-25T20:05:44.177Z,5.37
2019-04-25T20:08:32.321Z,4.33
2019-04-25T20:11:11.097Z,6.60
2019-04-25T20:13:39.497Z,5.87
2019-04-25T20:16:07.879Z,4.60
2019-04-25T20:18:36.289Z,5.25
2019-04-25T20:21:04.689Z,3.65
2019-04-25T20:23:33.071Z,2.65
2019-04-25T20:26:01.478Z,7.33
2019-04-25T20:28:29.893Z,5.47
2019-04-25T20:30:58.271Z,6.25
2019-04-25T20:33:26.785Z,4.90
2019-04-25T20:35:55.326Z,8.85
2019-04-25T20:38:27.112Z,4.55
2019-04-25T20:40:56.509Z,7.65
2019-04-25T20:43:24.878Z,4.35
2019-04-25T20:45:54.401Z,4.67
2019-04-25T20:48:34.908Z,3.42
2019-04-25T20:51:03.376Z,5.25
2019-04-25T20:53:31.768Z,3.98
2019-04-25T20:56:00.155Z,5.72
2019-04-25T20:58:28.613Z,6.05
2019-04-25T21:00:58.607Z,3.67
2019-04-25T21:03:27.012Z,5.65
2019-04-25T21:06:00.552Z,3.72
2019-04-25T21:08:28.971Z,3.02
2019-04-25T21:10:58.932Z,6.03
2019-04-25T21:13:29.104Z,5.70
2019-04-25T21:16:15.346Z,3.90
2019-04-25T21:18:45.630Z,5.33
2019-04-25T21:21:14.066Z,3.83
2019-04-25T21:23:42.791Z,4.92
2019-04-25T21:26:11.300Z,4.53
2019-04-25T21:28:40.056Z,12.40
2019-04-25T21:31:09.015Z,3.98
2019-04-25T21:33:37.581Z,6.62
2019-04-25T21:36:07.354Z,4.54
2019-04-25T21:38:36.068Z,2.45
2019-04-25T21:41:09.443Z,5.28
2019-04-25T21:43:45.903Z,4.37
2019-04-25T21:46:14.687Z,1.67
2019-04-25T21:48:43.347Z,8.83
2019-04-25T21:51:30.654Z,3.50
2019-04-25T21:54:05.004Z,3.67
2019-04-25T21:56:33.594Z,3.47
2019-04-25T21:59:02.092Z,1.95
2019-04-25T22:01:35.025Z,1.87
2019-04-25T22:04:03.702Z,2.83
2019-04-25T22:06:33.619Z,2.55
2019-04-25T22:09:02.981Z,4.08
2019-04-25T22:11:31.808Z,2.40
2019-04-25T22:14:01.374Z,3.83
2019-04-25T22:16:30.224Z,2.30
2019-04-25T22:18:59.873Z,3.27
2019-04-25T22:21:37.806Z,2.98
2019-04-25T22:24:08.674Z,4.47
2019-04-25T22:26:28.809Z,3.70
2019-04-25T22:28:57.825Z,3.15
2019-04-25T22:31:41.110Z,3.12
2019-04-25T22:34:11.465Z,3.72
2019-04-25T22:36:42.540Z,2.27
2019-04-25T22:39:11.774Z,4.10
2019-04-25T22:41:47.205Z,2.92
2019-04-25T22:44:16.072Z,3.08
2019-04-25T22:46:44.932Z,3.52
2019-04-25T22:49:13.299Z,3.02
2019-04-25T22:51:41.705Z,2.47
2019-04-25T22:54:10.355Z,2.62
2019-04-25T22:56:38.788Z,1.17
2019-04-25T22:59:07.660Z,3.52
2019-04-25T23:01:46.570Z,3.40
2019-04-25T23:04:34.750Z,4.17
2019-04-25T23:07:04.084Z,3.45
2019-04-25T23:09:34.133Z,4.75
2019-04-25T23:12:03.821Z,5.65
2019-04-25T23:14:33.014Z,4.92
2019-04-25T23:17:01.604Z,4.55
2019-04-25T23:19:31.278Z,4.83
2019-04-25T23:22:03.087Z,5.33
2019-04-25T23:24:38.269Z,7.80
2019-04-25T23:27:08.562Z,4.42
2019-04-25T23:29:37.752Z,5.37
2019-04-25T23:32:06.806Z,7.50
2019-04-25T23:34:35.264Z,5.40
2019-04-25T23:37:04.725Z,3.40
2019-04-25T23:39:34.391Z,3.30
2019-04-25T23:42:03.017Z,6.87
2019-04-25T23:44:31.417Z,8.15
2019-04-25T23:46:59.918Z,3.70
2019-04-25T23:49:28.322Z,3.92
2019-04-25T23:51:56.995Z,7.62
2019-04-25T23:54:25.549Z,4.62
2019-04-25T23:56:54.243Z,8.08
2019-04-25T23:59:22.634Z,8.80
